Time;durP1;ratioP1;P1;durP2;ratioP2;P2;SDS_P1;SDS_P2;PMS_P1;PMS_P2;Temp;Humidity;BMP_temperature;BMP_pressure;BME280_temperature;BME280_humidity;BME280_pressure;Samples;Min_cycle;Max_cycle;Signal;HPM_P1;HPM_P2
2022/09/03 00:01:41;;;;;;;16.95;4.10;;;;;;;;;;5043722;28;20071;-67
2022/09/03 00:04:16;;;;;;;12.98;4.25;;;;;;;;;;5045017;28;20090;-66
2022/09/03 00:06:48;;;;;;;12.18;3.95;;;;;;;;;;5040248;28;20041;-67
2022/09/03 00:09:49;;;;;;;13.35;4.20;;;;;;;;;;5039373;28;20049;-66
2022/09/03 00:12:23;;;;;;;13.98;3.92;;;;;;;;;;5043511;28;20136;-67
2022/09/03 00:15:12;;;;;;;17.90;4.80;;;;;;;;;;5041566;28;20057;-67
2022/09/03 00:18:01;;;;;;;14.63;5.07;;;;;;;;;;5042323;28;20522;-71
2022/09/03 00:20:36;;;;;;;17.70;5.00;;;;;;;;;;5043621;28;20063;-67
2022/09/03 00:23:06;;;;;;;17.35;5.05;;;;;;;;;;5042178;28;20429;-65
2022/09/03 00:25:47;;;;;;;25.58;5.82;;;;;;;;;;5039703;28;20099;-68
2022/09/03 00:28:23;;;;;;;24.20;5.28;;;;;;;;;;5038186;28;20105;-68
2022/09/03 00:30:54;;;;;;;20.85;5.82;;;;;;;;;;5038816;28;20051;-69
2022/09/03 00:33:23;;;;;;;19.50;5.93;;;;;;;;;;5041584;28;20045;-68
2022/09/03 00:36:01;;;;;;;17.90;5.97;;;;;;;;;;5043879;28;20232;-66
2022/09/03 00:38:30;;;;;;;16.35;5.97;;;;;;;;;;5041712;28;20057;-67
2022/09/03 00:41:05;;;;;;;28.42;6.65;;;;;;;;;;5040203;28;20068;-65
2022/09/03 00:43:49;;;;;;;23.13;6.60;;;;;;;;;;5041937;28;20132;-67
2022/09/03 00:46:30;;;;;;;18.60;6.13;;;;;;;;;;5038703;28;20401;-65
2022/09/03 00:49:15;;;;;;;20.10;6.03;;;;;;;;;;5039701;28;20114;-65
2022/09/03 00:51:48;;;;;;;;;;;;;;;;;;5043497;28;20040;-65
2022/09/03 00:54:40;;;;;;;26.67;6.50;;;;;;;;;;5038948;28;19932;-68
2022/09/03 00:57:32;;;;;;;22.30;6.05;;;;;;;;;;5041353;28;20357;-67
2022/09/03 01:00:01;;;;;;;21.23;6.40;;;;;;;;;;5043460;28;20482;-68
2022/09/03 01:02:57;;;;;;;23.20;6.70;;;;;;;;;;5043312;28;20053;-67
2022/09/03 01:05:47;;;;;;;24.33;7.10;;;;;;;;;;5041289;28;20585;-65
2022/09/03 01:08:30;;;;;;;25.95;7.25;;;;;;;;;;5039082;28;20037;-66
2022/09/03 01:11:09;;;;;;;19.45;6.93;;;;;;;;;;5041793;28;20419;-67
2022/09/03 01:13:50;;;;;;;25.75;7.53;;;;;;;;;;5041038;28;20049;-67
2022/09/03 01:16:30;;;;;;;18.58;7.20;;;;;;;;;;5040334;28;20048;-66
2022/09/03 01:19:26;;;;;;;20.33;7.97;;;;;;;;;;5039537;28;20049;-68
2022/09/03 01:22:25;;;;;;;20.42;7.35;;;;;;;;;;5042553;28;20057;-66
2022/09/03 01:25:14;;;;;;;22.20;7.05;;;;;;;;;;5038841;28;20091;-67
2022/09/03 01:27:46;;;;;;;31.13;7.20;;;;;;;;;;5031873;28;20102;-68
2022/09/03 01:30:17;;;;;;;24.27;6.95;;;;;;;;;;5043925;28;20044;-66
2022/09/03 01:33:20;;;;;;;22.02;7.35;;;;;;;;;;5042737;28;20051;-66
2022/09/03 01:35:54;;;;;;;18.80;6.93;;;;;;;;;;5040527;28;20041;-65
2022/09/03 01:38:26;;;;;;;19.52;7.03;;;;;;;;;;5039550;28;20454;-64
2022/09/03 01:44:31;;;;;;;21.38;6.75;;;;;;;;;;5031868;28;20053;-66
2022/09/03 01:47:30;;;;;;;20.92;6.40;;;;;;;;;;5021933;28;20690;-65
2022/09/03 01:50:25;;;;;;;19.20;6.03;;;;;;;;;;5020204;28;20076;-66
2022/09/03 01:53:02;;;;;;;19.73;6.28;;;;;;;;;;5039546;28;20049;-65
2022/09/03 01:55:38;;;;;;;18.73;5.85;;;;;;;;;;5041682;28;20297;-65
2022/09/03 01:58:14;;;;;;;18.77;6.55;;;;;;;;;;5039837;28;20049;-64
2022/09/03 02:00:44;;;;;;;17.00;5.82;;;;;;;;;;5041800;28;20198;-66
2022/09/03 02:03:11;;;;;;;18.38;6.07;;;;;;;;;;5045638;28;20060;-66
2022/09/03 02:05:37;;;;;;;22.92;6.63;;;;;;;;;;5039574;28;20055;-65
2022/09/03 02:08:06;;;;;;;11.95;3.95;;;;;;;;;;5040034;28;20896;-65
2022/09/03 02:10:42;;;;;;;18.65;4.10;;;;;;;;;;5041473;28;20081;-65
2022/09/03 02:13:30;;;;;;;11.80;4.07;;;;;;;;;;5041777;28;20053;-65
2022/09/03 02:16:00;;;;;;;15.27;4.60;;;;;;;;;;5039381;28;20072;-66
2022/09/03 02:18:30;;;;;;;12.60;4.03;;;;;;;;;;5038740;28;20063;-66
2022/09/03 02:20:59;;;;;;;13.80;3.80;;;;;;;;;;5041504;28;20057;-66
2022/09/03 02:23:27;;;;;;;11.77;3.13;;;;;;;;;;5039165;28;20361;-66
2022/09/03 02:25:59;;;;;;;12.30;3.33;;;;;;;;;;5037939;28;20049;-66
2022/09/03 02:28:27;;;;;;;12.18;3.20;;;;;;;;;;5039951;28;20741;-66
2022/09/03 02:30:53;;;;;;;12.38;2.80;;;;;;;;;;5037521;28;20065;-67
2022/09/03 02:33:19;;;;;;;12.05;2.78;;;;;;;;;;5041596;28;20119;-65
2022/09/03 02:35:46;;;;;;;12.15;3.58;;;;;;;;;;5040157;28;20136;-67
2022/09/03 02:38:17;;;;;;;10.35;2.88;;;;;;;;;;5038293;28;20052;-67
2022/09/03 02:40:44;;;;;;;9.88;3.15;;;;;;;;;;5040098;28;20045;-65
2022/09/03 02:43:40;;;;;;;11.48;3.33;;;;;;;;;;5040569;28;20159;-65
2022/09/03 02:46:11;;;;;;;8.65;2.90;;;;;;;;;;5022692;28;20143;-65
2022/09/03 02:48:37;;;;;;;17.05;3.30;;;;;;;;;;5041176;28;20064;-66
2022/09/03 02:51:03;;;;;;;9.18;3.15;;;;;;;;;;5040768;28;20048;-65
2022/09/03 02:53:29;;;;;;;9.25;3.50;;;;;;;;;;5041051;28;20135;-66
2022/09/03 02:55:59;;;;;;;13.30;3.50;;;;;;;;;;5038176;28;20460;-65
2022/09/03 02:58:25;;;;;;;9.57;3.22;;;;;;;;;;5038919;28;20112;-66
2022/09/03 03:00:52;;;;;;;17.17;4.28;;;;;;;;;;5038618;28;20055;-66
2022/09/03 03:03:18;;;;;;;13.45;3.70;;;;;;;;;;5039446;28;20049;-65
2022/09/03 03:05:48;;;;;;;13.77;4.07;;;;;;;;;;5045352;28;20053;-67
2022/09/03 03:08:15;;;;;;;13.07;3.92;;;;;;;;;;5042501;28;20051;-65
2022/09/03 03:10:45;;;;;;;15.65;3.95;;;;;;;;;;5044280;28;20331;-67
2022/09/03 03:13:12;;;;;;;9.63;3.40;;;;;;;;;;5045939;28;20041;-65
2022/09/03 03:15:39;;;;;;;8.82;3.70;;;;;;;;;;5046977;28;20052;-64
2022/09/03 03:18:06;;;;;;;14.57;4.00;;;;;;;;;;5045049;28;20696;-65
2022/09/03 03:20:32;;;;;;;8.63;3.60;;;;;;;;;;5042179;28;20045;-65
2022/09/03 03:23:03;;;;;;;14.88;4.03;;;;;;;;;;5045393;28;20574;-64
2022/09/03 03:25:31;;;;;;;13.05;3.97;;;;;;;;;;5044012;28;20441;-64
2022/09/03 03:27:57;;;;;;;15.88;4.45;;;;;;;;;;5043262;28;20132;-65
2022/09/03 03:30:23;;;;;;;19.60;4.80;;;;;;;;;;5042450;28;20157;-66
2022/09/03 03:32:52;;;;;;;11.70;5.15;;;;;;;;;;5043672;28;20075;-66
2022/09/03 03:35:18;;;;;;;11.00;5.47;;;;;;;;;;5043348;28;20053;-65
2022/09/03 03:37:44;;;;;;;16.02;5.90;;;;;;;;;;5043639;28;20110;-65
2022/09/03 03:40:11;;;;;;;17.38;6.00;;;;;;;;;;5044592;28;20057;-65
2022/09/03 03:42:37;;;;;;;14.88;5.70;;;;;;;;;;5044661;28;20053;-64
2022/09/03 03:45:05;;;;;;;20.15;5.63;;;;;;;;;;5041444;28;20060;-65
2022/09/03 03:47:31;;;;;;;12.50;5.05;;;;;;;;;;5043966;28;20392;-65
2022/09/03 03:49:57;;;;;;;14.80;5.55;;;;;;;;;;5042360;28;20049;-65
2022/09/03 03:52:24;;;;;;;15.55;5.50;;;;;;;;;;5043218;28;20044;-65
2022/09/03 03:54:51;;;;;;;15.23;5.20;;;;;;;;;;5042403;28;20041;-64
2022/09/03 03:57:20;;;;;;;10.02;4.78;;;;;;;;;;5046605;28;20083;-64
2022/09/03 03:59:47;;;;;;;11.63;4.57;;;;;;;;;;5044923;28;20166;-65
2022/09/03 04:02:13;;;;;;;10.43;5.00;;;;;;;;;;5043634;28;20064;-65
2022/09/03 04:04:39;;;;;;;15.55;5.50;;;;;;;;;;5043375;28;20052;-66
2022/09/03 04:07:06;;;;;;;12.90;4.90;;;;;;;;;;5042170;28;20041;-65
2022/09/03 04:09:33;;;;;;;13.25;4.95;;;;;;;;;;5040550;28;20077;-65
2022/09/03 04:11:59;;;;;;;11.20;5.05;;;;;;;;;;5042837;28;20162;-65
2022/09/03 04:14:28;;;;;;;18.08;4.70;;;;;;;;;;5040356;28;20447;-66
2022/09/03 04:16:55;;;;;;;15.05;4.93;;;;;;;;;;5041489;28;20483;-65
2022/09/03 04:19:21;;;;;;;11.80;4.82;;;;;;;;;;5041212;28;20067;-65
2022/09/03 04:21:47;;;;;;;12.93;5.03;;;;;;;;;;5042360;28;20065;-65
2022/09/03 04:24:13;;;;;;;16.38;4.75;;;;;;;;;;5043313;28;20336;-66
2022/09/03 04:26:39;;;;;;;12.45;4.15;;;;;;;;;;5043818;28;20078;-67
2022/09/03 04:29:08;;;;;;;12.65;4.57;;;;;;;;;;5040835;28;20049;-63
2022/09/03 04:31:35;;;;;;;10.77;4.38;;;;;;;;;;5042788;28;20052;-64
2022/09/03 04:34:01;;;;;;;12.32;4.72;;;;;;;;;;5041048;28;20059;-65
2022/09/03 04:36:29;;;;;;;15.65;4.70;;;;;;;;;;5043254;28;20048;-65
2022/09/03 04:38:58;;;;;;;13.75;4.72;;;;;;;;;;5039968;28;20136;-67
2022/09/03 04:41:27;;;;;;;11.98;4.70;;;;;;;;;;5040007;28;20103;-65
2022/09/03 04:43:55;;;;;;;17.77;5.43;;;;;;;;;;5045874;28;20141;-66
2022/09/03 04:46:24;;;;;;;10.80;4.88;;;;;;;;;;5043315;28;20056;-66
2022/09/03 04:48:53;;;;;;;11.48;4.50;;;;;;;;;;5043152;28;20037;-67
2022/09/03 04:51:22;;;;;;;13.80;4.68;;;;;;;;;;5042372;28;20544;-64
2022/09/03 04:53:55;;;;;;;16.55;4.85;;;;;;;;;;5044401;28;20139;-64
2022/09/03 04:56:24;;;;;;;17.50;4.57;;;;;;;;;;5045428;28;20203;-64
2022/09/03 04:58:55;;;;;;;9.85;4.13;;;;;;;;;;5040084;28;20041;-66
2022/09/03 05:01:22;;;;;;;9.32;4.38;;;;;;;;;;5040561;28;20041;-65
2022/09/03 05:03:51;;;;;;;13.85;4.20;;;;;;;;;;5042707;28;20092;-66
2022/09/03 05:06:17;;;;;;;11.90;4.90;;;;;;;;;;5044451;28;20534;-65
2022/09/03 05:08:47;;;;;;;12.05;4.25;;;;;;;;;;5038141;28;20056;-64
2022/09/03 05:11:14;;;;;;;15.13;3.95;;;;;;;;;;5038788;28;20045;-64
2022/09/03 05:13:39;;;;;;;10.40;3.63;;;;;;;;;;5040677;28;20080;-65
2022/09/03 05:16:08;;;;;;;9.15;3.15;;;;;;;;;;5041734;28;20463;-65
2022/09/03 05:18:35;;;;;;;10.90;2.58;;;;;;;;;;5041674;28;20508;-64
2022/09/03 05:21:04;;;;;;;4.55;2.20;;;;;;;;;;5041937;28;20064;-64
2022/09/03 05:23:30;;;;;;;5.65;2.40;;;;;;;;;;5040944;28;20049;-64
2022/09/03 05:25:58;;;;;;;6.13;2.17;;;;;;;;;;5041956;28;20058;-63
2022/09/03 05:28:29;;;;;;;6.80;2.55;;;;;;;;;;5041268;28;20040;-63
2022/09/03 05:31:03;;;;;;;7.18;2.00;;;;;;;;;;5037132;28;20041;-66
2022/09/03 05:33:32;;;;;;;3.92;2.08;;;;;;;;;;5041109;28;20057;-65
2022/09/03 05:36:10;;;;;;;5.97;2.10;;;;;;;;;;5042934;28;20124;-64
2022/09/03 05:38:36;;;;;;;6.88;2.15;;;;;;;;;;5040288;28;20124;-64
2022/09/03 05:41:04;;;;;;;6.57;2.45;;;;;;;;;;5042250;28;20052;-64
2022/09/03 05:43:31;;;;;;;7.15;2.50;;;;;;;;;;5042179;28;20048;-64
2022/09/03 05:46:11;;;;;;;6.40;2.20;;;;;;;;;;5040941;28;20057;-66
2022/09/03 05:48:39;;;;;;;6.38;2.63;;;;;;;;;;5036536;28;20263;-65
2022/09/03 05:51:12;;;;;;;11.88;2.85;;;;;;;;;;5042497;28;20055;-66
2022/09/03 05:53:39;;;;;;;9.00;2.70;;;;;;;;;;5039837;28;20053;-64
2022/09/03 05:56:11;;;;;;;5.80;2.25;;;;;;;;;;5041575;28;21505;-67
2022/09/03 05:58:43;;;;;;;9.40;2.47;;;;;;;;;;5040970;28;20045;-66
2022/09/03 06:01:20;;;;;;;9.82;2.15;;;;;;;;;;5038341;28;20061;-65
2022/09/03 06:03:57;;;;;;;6.05;1.98;;;;;;;;;;5040279;28;20099;-65
2022/09/03 06:06:24;;;;;;;6.45;2.10;;;;;;;;;;5037064;28;20141;-65
2022/09/03 06:08:51;;;;;;;10.73;2.40;;;;;;;;;;5039250;28;20071;-66
2022/09/03 06:11:17;;;;;;;9.68;2.00;;;;;;;;;;5039202;28;20041;-67
2022/09/03 06:13:43;;;;;;;9.13;2.22;;;;;;;;;;5040929;28;20110;-65
2022/09/03 06:16:09;;;;;;;10.48;2.67;;;;;;;;;;5040232;28;20423;-66
2022/09/03 06:18:35;;;;;;;6.38;1.83;;;;;;;;;;5040153;28;20469;-65
2022/09/03 06:21:04;;;;;;;3.88;1.52;;;;;;;;;;5040778;28;21125;-64
2022/09/03 06:23:31;;;;;;;5.40;2.03;;;;;;;;;;5039478;28;20052;-65
2022/09/03 06:26:09;;;;;;;5.00;1.80;;;;;;;;;;5038394;28;20045;-64
2022/09/03 06:28:38;;;;;;;11.32;2.25;;;;;;;;;;5041469;28;20133;-65
2022/09/03 06:31:07;;;;;;;5.28;2.10;;;;;;;;;;5037660;28;20497;-64
2022/09/03 06:33:35;;;;;;;5.78;2.17;;;;;;;;;;5039989;28;20060;-66
2022/09/03 06:36:04;;;;;;;11.30;2.30;;;;;;;;;;5041500;28;20159;-67
2022/09/03 06:38:31;;;;;;;11.65;2.13;;;;;;;;;;5041843;28;20076;-67
2022/09/03 06:41:02;;;;;;;12.73;2.00;;;;;;;;;;5041323;28;20061;-66
2022/09/03 06:43:30;;;;;;;7.13;1.80;;;;;;;;;;5045342;28;20765;-65
2022/09/03 06:45:57;;;;;;;12.30;2.13;;;;;;;;;;5046771;28;21316;-66
2022/09/03 06:48:24;;;;;;;7.68;2.03;;;;;;;;;;5041347;28;20052;-65
2022/09/03 06:51:02;;;;;;;3.42;2.00;;;;;;;;;;5040362;28;20045;-67
2022/09/03 06:53:30;;;;;;;5.85;2.10;;;;;;;;;;5041210;28;20059;-66
2022/09/03 06:55:58;;;;;;;10.93;1.90;;;;;;;;;;5041338;28;20186;-67
2022/09/03 06:58:28;;;;;;;8.48;2.10;;;;;;;;;;5046040;28;20037;-69
2022/09/03 07:01:05;;;;;;;6.95;2.10;;;;;;;;;;5041897;28;20068;-66
2022/09/03 07:03:32;;;;;;;5.30;2.03;;;;;;;;;;5043234;28;20064;-67
2022/09/03 07:06:07;;;;;;;9.38;2.28;;;;;;;;;;5044577;28;20095;-64
2022/09/03 07:08:33;;;;;;;7.28;2.30;;;;;;;;;;5044317;28;20053;-63
2022/09/03 07:11:07;;;;;;;7.43;2.30;;;;;;;;;;5046526;28;20234;-62
2022/09/03 07:13:34;;;;;;;5.82;2.00;;;;;;;;;;5043674;28;20090;-62
2022/09/03 07:16:03;;;;;;;7.40;2.10;;;;;;;;;;5045008;28;20114;-65
2022/09/03 07:18:30;;;;;;;4.60;1.80;;;;;;;;;;5044524;28;20060;-65
2022/09/03 07:21:05;;;;;;;6.43;2.15;;;;;;;;;;5045974;28;20052;-65
2022/09/03 07:23:32;;;;;;;7.28;1.90;;;;;;;;;;5044466;28;20565;-65
2022/09/03 07:26:01;;;;;;;4.55;1.85;;;;;;;;;;5047683;28;20075;-65
2022/09/03 07:28:28;;;;;;;6.85;2.00;;;;;;;;;;5044578;28;20052;-63
2022/09/03 07:30:59;;;;;;;5.05;2.13;;;;;;;;;;5042923;28;20578;-69
2022/09/03 07:33:28;;;;;;;8.27;2.30;;;;;;;;;;5046255;28;20446;-65
2022/09/03 07:35:53;;;;;;;5.22;1.98;;;;;;;;;;5043920;28;20033;-63
2022/09/03 07:38:19;;;;;;;7.40;2.45;;;;;;;;;;5042724;28;20452;-63
2022/09/03 07:40:46;;;;;;;7.65;2.05;;;;;;;;;;5041064;28;20045;-66
2022/09/03 07:43:12;;;;;;;5.63;2.30;;;;;;;;;;5044939;28;20040;-65
2022/09/03 07:45:38;;;;;;;8.23;1.90;;;;;;;;;;5045552;28;20414;-64
2022/09/03 07:48:04;;;;;;;6.65;2.05;;;;;;;;;;5042828;28;20114;-64
2022/09/03 07:50:36;;;;;;;9.40;2.20;;;;;;;;;;5041962;28;21134;-64
2022/09/03 07:53:02;;;;;;;5.15;2.35;;;;;;;;;;5040017;28;20049;-65
2022/09/03 07:55:28;;;;;;;7.43;2.03;;;;;;;;;;5043147;28;20178;-63
2022/09/03 07:57:55;;;;;;;9.82;2.20;;;;;;;;;;5041257;28;20498;-68
2022/09/03 08:00:21;;;;;;;6.53;2.20;;;;;;;;;;5041167;28;20057;-63
2022/09/03 08:02:47;;;;;;;7.95;2.40;;;;;;;;;;5044574;28;20235;-64
2022/09/03 08:05:12;;;;;;;8.77;2.80;;;;;;;;;;5042274;28;20066;-65
2022/09/03 08:07:38;;;;;;;11.38;2.17;;;;;;;;;;5044667;28;20057;-62
2022/09/03 08:10:05;;;;;;;5.95;1.90;;;;;;;;;;5036751;28;20071;-66
2022/09/03 08:12:31;;;;;;;5.10;1.75;;;;;;;;;;5021901;28;20049;-66
2022/09/03 08:14:58;;;;;;;12.68;2.20;;;;;;;;;;5041503;28;20084;-64
2022/09/03 08:17:24;;;;;;;6.80;2.30;;;;;;;;;;5042795;28;20704;-66
2022/09/03 08:19:49;;;;;;;7.70;1.95;;;;;;;;;;5042189;28;20045;-66
2022/09/03 08:22:15;;;;;;;9.98;2.58;;;;;;;;;;5041451;28;20053;-64
2022/09/03 08:24:42;;;;;;;10.80;2.85;;;;;;;;;;5043911;28;20075;-68
2022/09/03 08:27:08;;;;;;;8.80;2.50;;;;;;;;;;5045659;28;20048;-68
2022/09/03 08:29:34;;;;;;;11.43;2.97;;;;;;;;;;5035834;28;20786;-66
2022/09/03 08:31:59;;;;;;;15.18;2.72;;;;;;;;;;5039380;28;20081;-64
2022/09/03 08:34:25;;;;;;;9.98;2.58;;;;;;;;;;5043109;28;20116;-65
2022/09/03 08:36:51;;;;;;;7.45;2.42;;;;;;;;;;5040946;28;20129;-64
2022/09/03 08:39:17;;;;;;;9.85;2.80;;;;;;;;;;5038112;28;20084;-66
2022/09/03 08:41:49;;;;;;;10.70;3.53;;;;;;;;;;5039323;28;20465;-65
2022/09/03 08:44:46;;;;;;;13.20;3.00;;;;;;;;;;5041376;28;20068;-63
2022/09/03 08:47:21;;;;;;;9.93;2.47;;;;;;;;;;5044855;28;20124;-65
2022/09/03 08:50:12;;;;;;;13.13;3.10;;;;;;;;;;5040335;28;20402;-64
2022/09/03 08:52:48;;;;;;;9.30;3.10;;;;;;;;;;5046172;28;20088;-62
2022/09/03 08:55:16;;;;;;;11.05;3.05;;;;;;;;;;5042143;28;20598;-64
2022/09/03 08:57:47;;;;;;;11.45;3.10;;;;;;;;;;5042866;28;20049;-63
2022/09/03 09:00:13;;;;;;;13.27;3.22;;;;;;;;;;5041950;28;20516;-67
2022/09/03 09:02:49;;;;;;;9.48;2.47;;;;;;;;;;5038028;28;20049;-65
2022/09/03 09:05:45;;;;;;;14.02;3.15;;;;;;;;;;5039309;28;20044;-65
2022/09/03 09:08:16;;;;;;;11.85;2.50;;;;;;;;;;5043271;28;20053;-63
2022/09/03 09:11:07;;;;;;;8.82;2.50;;;;;;;;;;5040752;28;20136;-65
2022/09/03 09:13:43;;;;;;;8.88;2.80;;;;;;;;;;5041962;28;20053;-66
2022/09/03 09:16:15;;;;;;;10.05;2.75;;;;;;;;;;5040438;28;20048;-63
2022/09/03 09:18:50;;;;;;;10.52;3.65;;;;;;;;;;5043032;28;20136;-62
2022/09/03 09:21:28;;;;;;;12.38;3.90;;;;;;;;;;5043812;28;20056;-64
2022/09/03 09:24:00;;;;;;;24.13;3.75;;;;;;;;;;5039662;28;20060;-63
2022/09/03 09:26:27;;;;;;;10.90;3.10;;;;;;;;;;5040223;28;20194;-67
2022/09/03 09:29:14;;;;;;;11.60;3.10;;;;;;;;;;5041127;28;20056;-61
2022/09/03 09:31:44;;;;;;;10.27;3.67;;;;;;;;;;5040189;28;20056;-68
2022/09/03 09:34:10;;;;;;;10.27;3.90;;;;;;;;;;5042588;28;20053;-61
2022/09/03 09:36:49;;;;;;;12.35;3.65;;;;;;;;;;5045505;28;20117;-62
2022/09/03 09:39:15;;;;;;;8.00;3.47;;;;;;;;;;5044594;28;20040;-62
2022/09/03 09:41:43;;;;;;;12.07;3.25;;;;;;;;;;5040096;28;20118;-64
2022/09/03 09:44:18;;;;;;;8.85;3.00;;;;;;;;;;5042731;28;20149;-61
2022/09/03 09:46:45;;;;;;;13.02;3.22;;;;;;;;;;5037248;28;20685;-62
2022/09/03 09:49:33;;;;;;;12.43;3.00;;;;;;;;;;5041833;28;20471;-64
2022/09/03 09:52:02;;;;;;;12.75;2.95;;;;;;;;;;5043231;28;20132;-61
2022/09/03 09:54:27;;;;;;;12.48;3.13;;;;;;;;;;5041057;28;20144;-60
2022/09/03 09:57:17;;;;;;;14.95;3.40;;;;;;;;;;5039286;28;20044;-62
2022/09/03 09:59:45;;;;;;;9.40;3.05;;;;;;;;;;5039310;28;20049;-62
2022/09/03 10:02:25;;;;;;;9.70;2.95;;;;;;;;;;5039697;28;20094;-68
2022/09/03 10:04:52;;;;;;;12.98;3.20;;;;;;;;;;5041690;28;20049;-66
2022/09/03 10:07:31;;;;;;;10.70;2.78;;;;;;;;;;5043827;28;20041;-64
2022/09/03 10:10:13;;;;;;;18.30;3.75;;;;;;;;;;5035531;28;20437;-69
2022/09/03 10:12:49;;;;;;;15.93;3.50;;;;;;;;;;5039571;28;20505;-76
2022/09/03 10:15:31;;;;;;;16.88;3.22;;;;;;;;;;5040802;28;20049;-68
2022/09/03 10:18:27;;;;;;;9.68;2.90;;;;;;;;;;5038179;28;20045;-69
2022/09/03 10:21:14;;;;;;;11.90;2.90;;;;;;;;;;5040831;28;20132;-69
2022/09/03 10:24:20;;;;;;;7.57;2.97;;;;;;;;;;5042571;28;20502;-68
2022/09/03 10:26:46;;;;;;;13.48;2.83;;;;;;;;;;5000461;28;20057;-72
2022/09/03 10:29:19;;;;;;;15.15;3.17;;;;;;;;;;4981693;28;20491;-69
2022/09/03 10:32:08;;;;;;;15.93;3.15;;;;;;;;;;5000386;28;20068;-71
2022/09/03 10:34:48;;;;;;;14.98;3.33;;;;;;;;;;4996488;28;20208;-70
2022/09/03 10:37:39;;;;;;;15.55;3.10;;;;;;;;;;4999363;28;20633;-69
2022/09/03 10:40:20;;;;;;;12.48;3.25;;;;;;;;;;4997361;28;20054;-69
2022/09/03 10:43:10;;;;;;;49.65;10.20;;;;;;;;;;4995876;28;20050;-67
2022/09/03 10:45:46;;;;;;;17.45;5.18;;;;;;;;;;4982887;28;20345;-69
2022/09/03 10:48:21;;;;;;;22.50;5.32;;;;;;;;;;4981896;28;20120;-69
2022/09/03 10:50:52;;;;;;;14.80;4.22;;;;;;;;;;4998012;28;20048;-69
2022/09/03 10:53:24;;;;;;;12.05;3.47;;;;;;;;;;4996631;28;20045;-69
2022/09/03 10:56:05;;;;;;;17.90;3.60;;;;;;;;;;4996661;28;20041;-71
2022/09/03 10:58:56;;;;;;;17.33;3.38;;;;;;;;;;5036920;28;20053;-72
2022/09/03 11:01:47;;;;;;;9.93;3.08;;;;;;;;;;5040568;28;20269;-66
2022/09/03 11:04:14;;;;;;;10.85;3.40;;;;;;;;;;5040471;28;20187;-67
2022/09/03 11:07:07;;;;;;;11.90;3.05;;;;;;;;;;5040554;28;20061;-67
2022/09/03 11:09:41;;;;;;;10.43;3.40;;;;;;;;;;5040948;28;20054;-67
2022/09/03 11:12:10;;;;;;;12.93;3.15;;;;;;;;;;5042020;28;20052;-68
2022/09/03 11:14:41;;;;;;;14.48;3.63;;;;;;;;;;5041711;28;20497;-67
2022/09/03 11:17:31;;;;;;;13.60;3.47;;;;;;;;;;5042164;28;20053;-69
2022/09/03 11:20:10;;;;;;;13.35;4.05;;;;;;;;;;5036154;28;20107;-69
2022/09/03 11:22:37;;;;;;;12.88;3.65;;;;;;;;;;5040942;28;20132;-69
2022/09/03 11:25:06;;;;;;;13.73;3.53;;;;;;;;;;5042378;28;20106;-68
2022/09/03 11:27:34;;;;;;;10.02;2.92;;;;;;;;;;5045686;28;20460;-68
2022/09/03 11:30:09;;;;;;;11.88;3.38;;;;;;;;;;5044652;28;20057;-68
2022/09/03 11:32:52;;;;;;;7.97;2.80;;;;;;;;;;5045854;28;20098;-69
2022/09/03 11:35:33;;;;;;;13.95;3.17;;;;;;;;;;5045243;28;20056;-67
2022/09/03 11:38:04;;;;;;;11.00;2.97;;;;;;;;;;5044940;28;20052;-68
2022/09/03 11:40:38;;;;;;;12.70;3.00;;;;;;;;;;5043673;28;20061;-66
2022/09/03 11:43:07;;;;;;;12.70;3.60;;;;;;;;;;5045682;28;20148;-67
2022/09/03 11:45:36;;;;;;;13.23;3.20;;;;;;;;;;5045125;28;20510;-66
2022/09/03 11:48:30;;;;;;;11.57;2.70;;;;;;;;;;5044441;28;20487;-70
2022/09/03 11:50:56;;;;;;;15.20;3.00;;;;;;;;;;5040232;28;20045;-66
2022/09/03 11:53:27;;;;;;;11.75;3.08;;;;;;;;;;5042055;28;20405;-68
2022/09/03 11:55:58;;;;;;;12.95;3.28;;;;;;;;;;5041947;28;20048;-66
2022/09/03 11:58:32;;;;;;;11.45;2.80;;;;;;;;;;5043018;28;20045;-65
2022/09/03 12:01:00;;;;;;;11.02;3.15;;;;;;;;;;5041940;28;20041;-67
2022/09/03 12:03:49;;;;;;;9.75;2.92;;;;;;;;;;5044673;28;20045;-67
2022/09/03 12:06:40;;;;;;;9.00;2.63;;;;;;;;;;5044670;28;20037;-67
2022/09/03 12:09:18;;;;;;;7.20;2.40;;;;;;;;;;5041091;28;20391;-67
2022/09/03 12:12:10;;;;;;;8.35;3.00;;;;;;;;;;5038421;28;20128;-65
2022/09/03 12:14:49;;;;;;;16.35;3.20;;;;;;;;;;5043425;28;20396;-65
2022/09/03 12:17:15;;;;;;;8.32;2.63;;;;;;;;;;5044307;28;20103;-67
2022/09/03 12:19:53;;;;;;;15.15;3.00;;;;;;;;;;5040782;28;20982;-67
2022/09/03 12:22:22;;;;;;;14.57;3.28;;;;;;;;;;5043887;28;20096;-67
2022/09/03 12:24:49;;;;;;;12.45;2.78;;;;;;;;;;5042682;28;20043;-65
2022/09/03 12:27:23;;;;;;;13.68;3.13;;;;;;;;;;5043948;28;20138;-67
2022/09/03 12:29:55;;;;;;;;;;;;;;;;;;5042209;28;20122;-66
2022/09/03 12:32:21;;;;;;;15.57;3.15;;;;;;;;;;5042962;28;19935;-66
2022/09/03 12:34:47;;;;;;;9.45;3.00;;;;;;;;;;5045147;28;20084;-66
2022/09/03 12:37:23;;;;;;;14.30;3.10;;;;;;;;;;5044262;28;20048;-68
2022/09/03 12:39:55;;;;;;;13.48;3.65;;;;;;;;;;5040715;28;20350;-65
2022/09/03 12:42:30;;;;;;;9.75;2.95;;;;;;;;;;5044609;28;20493;-65
2022/09/03 12:45:09;;;;;;;13.02;3.00;;;;;;;;;;5043517;28;20118;-66
2022/09/03 12:47:39;;;;;;;12.85;3.17;;;;;;;;;;5042595;28;20121;-66
2022/09/03 12:50:15;;;;;;;14.50;3.28;;;;;;;;;;5040236;28;20052;-66
2022/09/03 12:52:47;;;;;;;16.42;3.25;;;;;;;;;;5041683;28;20143;-66
2022/09/03 12:55:37;;;;;;;11.93;3.05;;;;;;;;;;5042412;28;20051;-68
2022/09/03 12:58:15;;;;;;;11.85;3.17;;;;;;;;;;5041255;28;20319;-65
2022/09/03 13:01:08;;;;;;;12.73;2.97;;;;;;;;;;5046164;28;20063;-68
2022/09/03 13:03:45;;;;;;;14.27;3.25;;;;;;;;;;5043545;28;20075;-65
2022/09/03 13:06:14;;;;;;;13.48;2.92;;;;;;;;;;5043894;28;20625;-67
2022/09/03 13:08:48;;;;;;;11.98;3.35;;;;;;;;;;5042789;28;20053;-67
2022/09/03 13:11:17;;;;;;;13.18;3.13;;;;;;;;;;5044610;28;20048;-66
2022/09/03 13:13:59;;;;;;;18.63;3.10;;;;;;;;;;5043331;28;20057;-66
2022/09/03 13:16:37;;;;;;;12.20;3.15;;;;;;;;;;5041814;28;20124;-67
2022/09/03 13:19:26;;;;;;;16.08;3.15;;;;;;;;;;5043025;28;20517;-69
2022/09/03 13:22:10;;;;;;;13.90;3.33;;;;;;;;;;5041245;28;20132;-65
2022/09/03 13:25:01;;;;;;;14.43;3.65;;;;;;;;;;5043273;28;20114;-67
2022/09/03 13:27:42;;;;;;;12.23;3.30;;;;;;;;;;5045806;28;20116;-69
2022/09/03 13:30:13;;;;;;;11.05;2.90;;;;;;;;;;5044437;28;20770;-68
2022/09/03 13:32:57;;;;;;;11.27;3.10;;;;;;;;;;5046071;28;20577;-66
2022/09/03 13:35:26;;;;;;;17.48;3.28;;;;;;;;;;5041226;28;20074;-68
2022/09/03 13:38:02;;;;;;;13.82;3.15;;;;;;;;;;5039975;28;20049;-67
2022/09/03 13:40:40;;;;;;;14.52;3.10;;;;;;;;;;5039307;28;20044;-67
2022/09/03 13:43:15;;;;;;;8.30;2.85;;;;;;;;;;5039444;28;20053;-66
2022/09/03 13:45:49;;;;;;;12.77;3.00;;;;;;;;;;5042243;28;20051;-68
2022/09/03 13:51:21;;;;;;;9.95;2.83;;;;;;;;;;5041798;28;20124;-67
2022/09/03 13:54:17;;;;;;;13.85;3.35;;;;;;;;;;5038829;28;20072;-68
2022/09/03 13:57:03;;;;;;;13.85;3.17;;;;;;;;;;5042337;28;20514;-67
2022/09/03 13:59:57;;;;;;;12.50;2.60;;;;;;;;;;5041583;28;20060;-66
2022/09/03 14:02:45;;;;;;;9.15;2.40;;;;;;;;;;5041941;28;20133;-67
2022/09/03 14:05:23;;;;;;;9.45;2.90;;;;;;;;;;5042827;28;20044;-67
2022/09/03 14:08:00;;;;;;;11.90;2.55;;;;;;;;;;5038808;28;20045;-67
2022/09/03 14:10:38;;;;;;;11.85;2.53;;;;;;;;;;5039230;28;20037;-68
2022/09/03 14:13:42;;;;;;;10.57;2.60;;;;;;;;;;5041990;28;20049;-68
2022/09/03 14:16:30;;;;;;;12.32;2.80;;;;;;;;;;5041629;28;20057;-68
2022/09/03 14:19:05;;;;;;;9.80;2.63;;;;;;;;;;5037066;28;20056;-67
2022/09/03 14:21:41;;;;;;;13.30;3.28;;;;;;;;;;5042075;28;20061;-68
2022/09/03 14:24:29;;;;;;;10.18;2.60;;;;;;;;;;5075441;28;20126;-66
2022/09/03 14:27:01;;;;;;;7.05;2.30;;;;;;;;;;5041757;28;20053;-66
2022/09/03 14:29:29;;;;;;;10.32;3.10;;;;;;;;;;5040179;28;20421;-67
2022/09/03 14:32:07;;;;;;;9.73;2.75;;;;;;;;;;5041464;28;20053;-66
2022/09/03 14:35:11;;;;;;;11.93;2.60;;;;;;;;;;5039624;28;20275;-66
2022/09/03 14:37:43;;;;;;;8.30;2.53;;;;;;;;;;4981793;28;20146;-66
2022/09/03 14:40:23;;;;;;;9.52;2.30;;;;;;;;;;4978850;28;20054;-68
2022/09/03 14:43:26;;;;;;;10.85;2.67;;;;;;;;;;4976368;28;20050;-66
2022/09/03 14:46:17;;;;;;;9.13;2.53;;;;;;;;;;4961720;28;20046;-70
2022/09/03 14:49:08;;;;;;;10.70;2.65;;;;;;;;;;4978736;28;20057;-67
2022/09/03 14:51:46;;;;;;;12.05;2.40;;;;;;;;;;4978556;28;20657;-66
2022/09/03 14:54:37;;;;;;;13.45;2.40;;;;;;;;;;4977522;28;20069;-66
2022/09/03 14:57:03;;;;;;;12.30;2.22;;;;;;;;;;4977430;28;20077;-66
2022/09/03 15:00:03;;;;;;;10.13;2.35;;;;;;;;;;4976912;28;20042;-67
2022/09/03 15:02:35;;;;;;;11.23;2.63;;;;;;;;;;4981426;28;20381;-69
2022/09/03 15:05:38;;;;;;;11.45;2.63;;;;;;;;;;4965941;28;20042;-67
2022/09/03 15:08:20;;;;;;;6.68;2.00;;;;;;;;;;5000386;28;20190;-67
2022/09/03 15:10:59;;;;;;;15.23;2.20;;;;;;;;;;5044964;28;20069;-67
2022/09/03 15:13:33;;;;;;;9.93;2.80;;;;;;;;;;5045014;28;20536;-67
2022/09/03 15:16:12;;;;;;;9.68;2.10;;;;;;;;;;5046155;28;20056;-69
2022/09/03 15:19:00;;;;;;;9.65;2.35;;;;;;;;;;5043773;28;20061;-69
2022/09/03 15:21:57;;;;;;;8.45;2.30;;;;;;;;;;5045396;28;20060;-67
2022/09/03 15:24:36;;;;;;;10.65;2.47;;;;;;;;;;5045640;28;20099;-67